Time;durP1;ratioP1;P1;durP2;ratioP2;P2;SDS_P1;SDS_P2;PMS_P1;PMS_P2;Temp;Humidity;BMP_temperature;BMP_pressure;BME280_temperature;BME280_humidity;BME280_pressure;Samples;Min_cycle;Max_cycle;Signal;HPM_P1;HPM_P2
2021/03/19 00:01:00;;;;;;;13.35;7.50;;;3.60;99.90;;;;;;4142922;28;20418;-74
2021/03/19 00:03:00;;;;;;;13.35;7.80;;;3.60;99.90;;;;;;4143751;28;20034;-74
2021/03/19 00:05:02;;;;;;;13.80;8.32;;;3.60;99.90;;;;;;4144756;28;20532;-75
2021/03/19 00:07:03;;;;;;;8.95;6.90;;;3.50;99.90;;;;;;4143975;28;20497;-73
2021/03/19 00:09:06;;;;;;;9.70;7.15;;;3.50;99.90;;;;;;4144511;28;20034;-73
2021/03/19 00:11:07;;;;;;;12.38;8.00;;;3.50;99.90;;;;;;4145841;28;20125;-73
2021/03/19 00:13:09;;;;;;;16.42;8.38;;;3.40;99.90;;;;;;4145203;28;20048;-73
2021/03/19 00:15:10;;;;;;;8.80;7.75;;;3.30;99.90;;;;;;4145680;28;20041;-73
2021/03/19 00:17:11;;;;;;;12.35;8.27;;;3.30;99.90;;;;;;4145371;28;20038;-74
2021/03/19 00:19:11;;;;;;;12.48;8.23;;;3.20;99.90;;;;;;4145439;28;20146;-74
2021/03/19 00:21:12;;;;;;;14.50;7.75;;;3.10;99.90;;;;;;4145450;28;20033;-74
2021/03/19 00:23:14;;;;;;;12.93;8.60;;;3.00;99.90;;;;;;4144885;28;20042;-73
2021/03/19 00:25:15;;;;;;;11.73;8.30;;;2.90;99.90;;;;;;4143036;28;20105;-74
2021/03/19 00:27:16;;;;;;;15.48;8.35;;;2.70;99.90;;;;;;4144259;28;20025;-74
2021/03/19 00:29:17;;;;;;;15.32;9.43;;;2.60;99.90;;;;;;4145834;28;20041;-74
2021/03/19 00:31:18;;;;;;;12.07;8.30;;;2.50;99.90;;;;;;4145124;28;20433;-74
2021/03/19 00:33:19;;;;;;;14.45;9.02;;;2.40;99.90;;;;;;4145306;28;20026;-74
2021/03/19 00:35:20;;;;;;;14.65;8.63;;;2.30;99.90;;;;;;4143508;28;20125;-74
2021/03/19 00:37:21;;;;;;;13.55;9.55;;;2.20;99.90;;;;;;4144501;28;20448;-74
2021/03/19 00:39:21;;;;;;;15.43;9.27;;;2.20;99.90;;;;;;4145335;28;20371;-74
2021/03/19 00:41:22;;;;;;;12.15;9.95;;;2.10;99.90;;;;;;4139808;28;20053;-74
2021/03/19 00:43:24;;;;;;;13.13;9.98;;;2.00;99.90;;;;;;4145353;28;20072;-74
2021/03/19 00:45:25;;;;;;;12.50;8.38;;;1.90;99.90;;;;;;4145271;28;20030;-73
2021/03/19 00:47:26;;;;;;;15.43;9.07;;;1.70;99.90;;;;;;4141113;28;20026;-74
2021/03/19 00:49:26;;;;;;;12.18;10.13;;;1.80;99.90;;;;;;4143564;28;20037;-74
2021/03/19 00:51:27;;;;;;;14.52;9.73;;;1.80;99.90;;;;;;4145005;28;20026;-74
2021/03/19 00:53:27;;;;;;;17.40;9.82;;;1.70;99.90;;;;;;4138827;28;20110;-73
2021/03/19 00:55:28;;;;;;;12.50;9.75;;;1.70;99.90;;;;;;4134779;28;20034;-74
2021/03/19 00:57:29;;;;;;;12.57;9.63;;;1.60;99.90;;;;;;4145049;28;20129;-74
2021/03/19 00:59:30;;;;;;;19.40;12.20;;;1.60;99.90;;;;;;4143908;28;20104;-74
2021/03/19 01:01:30;;;;;;;13.57;9.77;;;1.70;99.90;;;;;;4145705;28;20389;-73
2021/03/19 01:03:31;;;;;;;17.77;8.85;;;1.70;99.90;;;;;;4145426;28;20038;-73
2021/03/19 01:05:36;;;;;;;15.27;10.18;;;1.60;99.90;;;;;;4144052;28;20091;-73
2021/03/19 01:07:37;;;;;;;16.90;9.85;;;1.60;99.90;;;;;;4144687;28;20034;-73
2021/03/19 01:09:38;;;;;;;14.70;9.00;;;1.50;99.90;;;;;;4145577;28;20030;-73
2021/03/19 01:11:38;;;;;;;18.35;9.82;;;1.50;99.90;;;;;;4141481;28;20049;-73
2021/03/19 01:13:39;;;;;;;14.77;10.00;;;1.40;99.90;;;;;;4142660;28;20065;-73
2021/03/19 01:15:40;;;;;;;20.38;9.95;;;1.40;99.90;;;;;;4143411;28;20181;-74
2021/03/19 01:17:41;;;;;;;19.38;9.90;;;1.30;99.90;;;;;;4139091;28;20091;-74
2021/03/19 01:19:42;;;;;;;19.02;10.05;;;1.30;99.90;;;;;;4135162;28;20109;-74
2021/03/19 01:21:42;;;;;;;18.02;10.30;;;1.40;99.90;;;;;;4142035;28;20083;-74
2021/03/19 01:23:45;;;;;;;16.30;9.82;;;1.30;99.90;;;;;;4141993;28;20069;-73
2021/03/19 01:25:46;;;;;;;17.75;10.18;;;1.30;99.90;;;;;;4141808;28;20026;-74
2021/03/19 01:27:47;;;;;;;18.92;10.07;;;1.60;99.90;;;;;;4139591;28;20068;-73
2021/03/19 01:29:47;;;;;;;19.90;10.57;;;1.90;99.90;;;;;;4142116;28;20174;-74
2021/03/19 01:31:48;;;;;;;18.20;10.38;;;1.10;99.90;;;;;;4142320;28;20045;-72
2021/03/19 01:33:49;;;;;;;21.25;11.02;;;1.10;99.90;;;;;;4142599;28;20041;-73
2021/03/19 01:35:50;;;;;;;18.83;11.57;;;1.10;99.90;;;;;;4141215;28;20037;-73
2021/03/19 01:37:51;;;;;;;15.68;10.77;;;1.00;99.90;;;;;;4141906;28;20038;-73
2021/03/19 01:39:52;;;;;;;18.88;11.05;;;1.10;99.90;;;;;;4142068;28;20152;-73
2021/03/19 01:41:55;;;;;;;20.13;11.73;;;1.10;99.90;;;;;;4137188;28;20065;-73
2021/03/19 01:44:02;;;;;;;18.35;11.20;;;1.10;99.90;;;;;;4144328;28;20053;-73
2021/03/19 01:46:40;;;;;;;19.33;11.15;;;1.00;99.90;;;;;;4145555;28;20124;-73
2021/03/19 01:49:19;;;;;;;20.80;11.40;;;1.00;99.90;;;;;;4145703;28;20041;-73
2021/03/19 01:51:57;;;;;;;18.27;11.07;;;1.00;99.90;;;;;;4145498;28;20489;-73
2021/03/19 01:54:35;;;;;;;19.75;10.70;;;0.90;99.90;;;;;;4145150;28;20045;-74
2021/03/19 01:57:13;;;;;;;20.73;11.98;;;0.90;99.90;;;;;;4145578;28;20112;-73
2021/03/19 02:00:08;;;;;;;19.25;11.57;;;0.80;99.90;;;;;;4144276;28;20042;-73
2021/03/19 02:02:45;;;;;;;18.92;10.40;;;0.80;99.90;;;;;;4126331;28;20038;-73
2021/03/19 02:05:24;;;;;;;17.65;10.82;;;0.80;99.90;;;;;;4138127;28;20034;-72
2021/03/19 02:08:12;;;;;;;18.42;11.75;;;0.80;99.90;;;;;;4145867;28;20038;-73
2021/03/19 02:10:50;;;;;;;18.98;11.32;;;0.70;99.90;;;;;;4128461;28;20193;-72
2021/03/19 02:13:27;;;;;;;22.10;11.05;;;0.60;99.90;;;;;;4144684;28;20038;-73
2021/03/19 02:16:05;;;;;;;23.50;10.63;;;0.60;99.90;;;;;;4145917;28;20041;-73
2021/03/19 02:18:43;;;;;;;20.25;11.73;;;0.70;99.90;;;;;;4145955;28;20034;-72
2021/03/19 02:21:21;;;;;;;21.90;10.55;;;0.70;99.90;;;;;;4146213;28;20089;-73
2021/03/19 02:23:59;;;;;;;14.98;10.05;;;0.60;99.90;;;;;;4142021;28;20049;-73
2021/03/19 02:26:38;;;;;;;18.05;11.13;;;0.70;99.90;;;;;;4147599;28;20044;-73
2021/03/19 02:29:16;;;;;;;20.10;11.68;;;0.60;99.90;;;;;;4147592;28;20088;-72
2021/03/19 02:31:16;;;;;;;18.92;10.50;;;0.60;99.90;;;;;;4141245;28;20516;-74
2021/03/19 02:33:17;;;;;;;18.15;10.23;;;0.50;99.90;;;;;;4147776;28;20033;-74
2021/03/19 02:35:21;;;;;;;15.93;10.90;;;0.50;99.90;;;;;;4147743;28;20038;-74
2021/03/19 02:37:26;;;;;;;24.05;9.80;;;0.40;99.90;;;;;;4142015;28;20501;-74
2021/03/19 02:39:27;;;;;;;21.88;11.82;;;0.40;99.90;;;;;;4145155;28;20036;-74
2021/03/19 02:41:27;;;;;;;19.88;11.13;;;0.40;99.90;;;;;;4144839;28;20113;-71
2021/03/19 02:43:28;;;;;;;24.55;11.45;;;0.30;99.90;;;;;;4145915;28;20500;-73
2021/03/19 02:45:29;;;;;;;19.42;10.73;;;0.30;99.90;;;;;;4147145;28;20393;-72
2021/03/19 02:47:29;;;;;;;22.50;11.32;;;0.20;99.90;;;;;;4146017;28;20125;-73
2021/03/19 02:49:32;;;;;;;19.60;10.77;;;0.20;99.90;;;;;;4147399;28;20105;-73
2021/03/19 02:51:32;;;;;;;20.48;11.50;;;0.20;99.90;;;;;;4147716;28;20394;-73
2021/03/19 02:53:35;;;;;;;24.05;11.70;;;0.30;99.90;;;;;;4145669;28;20061;-73
2021/03/19 02:55:35;;;;;;;18.92;11.68;;;0.20;99.90;;;;;;4147306;28;20040;-72
2021/03/19 02:57:36;;;;;;;20.17;12.05;;;0.20;99.90;;;;;;4147346;28;20483;-72
2021/03/19 02:59:37;;;;;;;27.23;11.80;;;0.10;99.90;;;;;;4147216;28;20100;-72
2021/03/19 03:01:38;;;;;;;24.88;12.40;;;0.10;99.90;;;;;;4147406;28;20038;-73
2021/03/19 03:03:39;;;;;;;23.90;11.65;;;0.20;99.90;;;;;;4147455;28;20041;-73
2021/03/19 03:05:40;;;;;;;26.13;11.80;;;0.20;99.90;;;;;;4146977;28;20018;-73
2021/03/19 03:07:40;;;;;;;29.38;12.38;;;0.20;99.90;;;;;;4146219;28;20061;-72
2021/03/19 03:09:41;;;;;;;24.95;11.20;;;0.20;99.90;;;;;;4146926;28;20252;-73
2021/03/19 03:11:42;;;;;;;24.35;11.82;;;0.20;99.90;;;;;;4146734;28;20042;-73
2021/03/19 03:13:43;;;;;;;21.15;10.75;;;0.20;99.90;;;;;;4147141;28;20041;-74
2021/03/19 03:15:44;;;;;;;24.52;10.82;;;0.10;99.90;;;;;;4146885;28;20100;-73
2021/03/19 03:17:45;;;;;;;30.02;11.52;;;0.10;99.90;;;;;;4146869;28;20461;-73
2021/03/19 03:19:46;;;;;;;31.50;12.35;;;0.00;99.90;;;;;;4146977;28;20038;-72
2021/03/19 03:21:46;;;;;;;27.63;11.57;;;0.00;99.90;;;;;;4146888;28;20036;-74
2021/03/19 03:23:48;;;;;;;29.23;11.35;;;0.00;99.90;;;;;;4145336;28;20045;-73
2021/03/19 03:25:49;;;;;;;21.10;10.05;;;-0.10;99.90;;;;;;4142137;28;20545;-72
2021/03/19 03:27:51;;;;;;;23.98;10.98;;;-0.10;99.90;;;;;;4146730;28;20037;-72
2021/03/19 03:29:52;;;;;;;29.38;11.40;;;-0.10;99.90;;;;;;4142989;28;20045;-73
2021/03/19 03:31:55;;;;;;;20.90;10.15;;;-0.20;99.90;;;;;;4140901;28;20042;-73
2021/03/19 03:33:56;;;;;;;25.60;10.82;;;-0.20;99.90;;;;;;4137987;28;20046;-73
2021/03/19 03:35:56;;;;;;;22.20;10.02;;;-0.20;99.90;;;;;;4142413;28;20393;-72
2021/03/19 03:37:59;;;;;;;16.92;10.00;;;-0.30;99.90;;;;;;4145437;28;20030;-74
2021/03/19 03:39:59;;;;;;;21.10;10.15;;;-0.40;99.90;;;;;;4144779;28;20405;-72
2021/03/19 03:42:02;;;;;;;26.85;9.52;;;-0.40;99.90;;;;;;4138164;28;20045;-73
2021/03/19 03:44:04;;;;;;;20.25;11.00;;;-0.40;99.90;;;;;;4143412;28;20131;-72
2021/03/19 03:46:07;;;;;;;20.67;10.18;;;-0.40;99.90;;;;;;4140825;28;20503;-72
2021/03/19 03:48:09;;;;;;;23.73;10.48;;;-0.40;99.90;;;;;;4145195;28;20037;-73
2021/03/19 03:50:14;;;;;;;21.10;9.93;;;-0.40;99.90;;;;;;4143354;28;20092;-72
2021/03/19 03:52:15;;;;;;;22.92;10.07;;;-0.40;99.90;;;;;;4144145;28;20578;-73
2021/03/19 03:54:16;;;;;;;28.50;11.10;;;-0.40;99.90;;;;;;4142784;28;20025;-72
2021/03/19 03:56:16;;;;;;;18.90;9.38;;;-0.40;99.90;;;;;;4146283;28;20401;-72
2021/03/19 03:58:18;;;;;;;24.98;10.68;;;-0.40;99.90;;;;;;4146405;28;20030;-72
2021/03/19 04:00:25;;;;;;;24.25;10.55;;;-0.40;99.90;;;;;;4141338;28;20026;-72
2021/03/19 04:02:28;;;;;;;20.75;10.93;;;-0.40;99.90;;;;;;4146241;28;20113;-73
2021/03/19 04:04:29;;;;;;;22.67;9.93;;;-0.40;99.90;;;;;;4146184;28;20041;-73
2021/03/19 04:06:29;;;;;;;24.63;10.48;;;-0.30;99.90;;;;;;4145643;28;20051;-72
2021/03/19 04:08:31;;;;;;;20.80;10.48;;;-0.30;99.90;;;;;;4146135;28;20033;-73
2021/03/19 04:10:32;;;;;;;29.05;12.35;;;-0.30;99.90;;;;;;4144465;28;20030;-73
2021/03/19 04:12:33;;;;;;;24.55;11.60;;;-0.30;99.90;;;;;;4148794;28;20443;-72
2021/03/19 04:14:34;;;;;;;25.95;10.98;;;-0.30;99.90;;;;;;4144573;28;20033;-72
2021/03/19 04:16:35;;;;;;;26.50;11.27;;;-0.30;99.90;;;;;;4145991;28;20033;-72
2021/03/19 04:18:36;;;;;;;26.23;12.07;;;-0.30;99.90;;;;;;4138319;28;20041;-73
2021/03/19 04:20:37;;;;;;;23.45;11.68;;;-0.40;99.90;;;;;;4143366;28;20041;-72
2021/03/19 04:22:39;;;;;;;26.30;11.55;;;-0.40;99.90;;;;;;4144232;28;20056;-72
2021/03/19 04:24:39;;;;;;;29.67;11.13;;;-0.40;99.90;;;;;;4145839;28;20413;-73
2021/03/19 04:26:40;;;;;;;24.60;11.15;;;-0.40;99.90;;;;;;4145719;28;20149;-73
2021/03/19 04:28:41;;;;;;;25.80;11.77;;;-0.40;99.90;;;;;;4145867;28;20129;-73
2021/03/19 04:30:44;;;;;;;21.63;11.57;;;-0.40;99.90;;;;;;4145963;28;20444;-72
2021/03/19 04:32:44;;;;;;;26.10;11.77;;;-0.50;99.90;;;;;;4139733;28;20038;-72
2021/03/19 04:34:45;;;;;;;28.20;12.18;;;-0.50;99.90;;;;;;4143592;28;20037;-73
2021/03/19 04:36:48;;;;;;;29.27;11.95;;;-0.50;99.90;;;;;;4144989;28;20029;-73
2021/03/19 04:38:51;;;;;;;34.05;12.93;;;-0.60;99.90;;;;;;4142588;28;20546;-72
2021/03/19 04:40:52;;;;;;;23.40;9.80;;;-0.70;99.90;;;;;;4140898;28;20048;-73
2021/03/19 04:42:54;;;;;;;22.60;11.48;;;-0.70;99.90;;;;;;4138701;28;20058;-73
2021/03/19 04:44:55;;;;;;;38.45;12.85;;;-0.70;99.90;;;;;;4143320;28;20042;-73
2021/03/19 04:46:56;;;;;;;24.20;11.98;;;-0.70;99.90;;;;;;4145232;28;20061;-74
2021/03/19 04:48:57;;;;;;;31.48;11.88;;;-0.70;99.90;;;;;;4144419;28;20063;-73
2021/03/19 04:50:58;;;;;;;29.58;12.40;;;-0.70;99.90;;;;;;4145595;28;20555;-73
2021/03/19 04:52:59;;;;;;;35.85;13.10;;;-0.70;99.90;;;;;;4139780;28;20038;-73
2021/03/19 04:55:03;;;;;;;25.75;12.85;;;-0.80;99.90;;;;;;4145537;28;20141;-72
2021/03/19 04:57:04;;;;;;;25.60;11.90;;;-0.80;99.90;;;;;;4137486;28;20503;-73
2021/03/19 04:59:06;;;;;;;28.58;12.52;;;-0.90;99.90;;;;;;4145383;28;20498;-74
2021/03/19 05:01:06;;;;;;;29.33;12.18;;;-0.90;99.90;;;;;;4145431;28;20093;-73
2021/03/19 05:03:07;;;;;;;25.80;12.55;;;-0.90;99.90;;;;;;4143663;28;20026;-73
2021/03/19 05:05:11;;;;;;;27.73;12.82;;;-0.90;99.90;;;;;;4145424;28;20046;-73
2021/03/19 05:07:12;;;;;;;25.20;11.52;;;-0.90;99.90;;;;;;4145155;28;20045;-72
2021/03/19 05:09:13;;;;;;;33.13;12.60;;;-0.90;99.90;;;;;;4145309;28;20532;-73
2021/03/19 05:11:15;;;;;;;32.60;12.57;;;-1.00;99.90;;;;;;4145076;28;20405;-72
2021/03/19 05:13:16;;;;;;;25.20;11.40;;;-1.00;99.90;;;;;;4144658;28;20117;-73
2021/03/19 05:15:18;;;;;;;22.92;12.35;;;-1.00;99.90;;;;;;4145488;28;20633;-72
2021/03/19 05:17:18;;;;;;;26.25;11.77;;;-1.10;99.90;;;;;;4143260;28;20631;-73
2021/03/19 05:19:20;;;;;;;32.70;13.48;;;-1.20;99.90;;;;;;4144575;28;20026;-72
2021/03/19 05:21:20;;;;;;;29.45;12.98;;;-0.90;99.90;;;;;;4145367;28;20172;-73
2021/03/19 05:23:28;;;;;;;33.97;13.10;;;-0.90;99.90;;;;;;4142133;28;20042;-74
2021/03/19 05:25:31;;;;;;;32.17;12.57;;;-0.80;99.90;;;;;;4142524;28;20053;-73
2021/03/19 05:27:32;;;;;;;;;;;-0.80;99.90;;;;;;4142673;28;20108;-73
2021/03/19 05:29:33;;;;;;;31.75;12.88;;;-0.80;99.90;;;;;;4144252;28;19921;-73
2021/03/19 05:31:34;;;;;;;23.60;11.73;;;-0.80;99.90;;;;;;4145256;28;20030;-73
2021/03/19 05:33:49;;;;;;;28.90;13.48;;;-0.80;99.90;;;;;;4144607;28;20030;-73
2021/03/19 05:35:51;;;;;;;23.40;11.68;;;-0.80;99.90;;;;;;4143354;28;20038;-73
2021/03/19 05:37:51;;;;;;;36.50;14.60;;;-0.80;99.90;;;;;;4144222;28;21647;-73
2021/03/19 05:39:52;;;;;;;29.50;13.75;;;-0.70;99.90;;;;;;4144257;28;20228;-73
2021/03/19 05:41:53;;;;;;;38.22;13.75;;;-0.70;99.90;;;;;;4144058;28;20030;-74
2021/03/19 05:43:59;;;;;;;29.80;14.73;;;-0.70;99.90;;;;;;4137322;28;20555;-73
2021/03/19 05:46:04;;;;;;;30.30;13.40;;;-0.80;99.90;;;;;;4143260;28;20035;-74
2021/03/19 05:48:08;;;;;;;39.72;13.95;;;-0.70;99.90;;;;;;4143931;28;20034;-74
2021/03/19 05:50:27;;;;;;;38.97;13.50;;;-0.70;99.90;;;;;;4144459;28;20777;-72
2021/03/19 05:52:34;;;;;;;32.90;12.20;;;-0.60;99.90;;;;;;4136908;28;20030;-73
2021/03/19 05:54:35;;;;;;;28.90;13.32;;;-0.60;99.90;;;;;;4143123;28;20521;-73
2021/03/19 05:56:36;;;;;;;28.80;13.93;;;-0.60;99.90;;;;;;4139859;28;20038;-74
2021/03/19 05:58:37;;;;;;;36.17;14.27;;;-0.60;99.90;;;;;;4142802;28;20030;-73
2021/03/19 06:00:37;;;;;;;32.20;14.07;;;-0.60;99.90;;;;;;4142833;28;20029;-73
2021/03/19 06:02:38;;;;;;;35.38;14.35;;;-0.50;99.90;;;;;;4143396;28;20038;-73
2021/03/19 06:04:39;;;;;;;30.35;12.85;;;-0.50;99.90;;;;;;4137603;28;20053;-73
2021/03/19 06:06:55;;;;;;;29.45;12.48;;;-0.40;99.90;;;;;;4141234;28;20405;-73
2021/03/19 06:08:56;;;;;;;32.53;14.68;;;-0.50;99.90;;;;;;4140419;28;20089;-73
2021/03/19 06:11:07;;;;;;;30.17;13.55;;;-0.50;99.90;;;;;;4142587;28;20030;-73
2021/03/19 06:13:22;;;;;;;36.42;14.27;;;-0.40;99.90;;;;;;4139629;28;20026;-73
2021/03/19 06:15:29;;;;;;;32.88;15.93;;;-0.40;99.90;;;;;;4135225;28;20076;-73
2021/03/19 06:17:41;;;;;;;29.48;14.55;;;-0.40;99.90;;;;;;4143523;28;20817;-73
2021/03/19 06:19:55;;;;;;;35.63;15.75;;;-0.40;99.90;;;;;;4142393;28;20393;-72
2021/03/19 06:22:20;;;;;;;30.13;13.50;;;-0.40;99.90;;;;;;4143447;28;20030;-73
2021/03/19 06:24:25;;;;;;;30.42;14.65;;;-0.30;99.90;;;;;;4142146;28;20035;-73
2021/03/19 06:26:36;;;;;;;39.33;15.00;;;-0.30;99.90;;;;;;4144408;28;20030;-72
2021/03/19 06:28:39;;;;;;;30.80;15.13;;;-0.30;99.90;;;;;;4140130;28;20023;-72
2021/03/19 06:30:42;;;;;;;35.97;15.55;;;-0.20;99.90;;;;;;4147281;28;20042;-72
2021/03/19 06:32:43;;;;;;;41.13;16.60;;;-0.20;99.90;;;;;;4147235;28;20504;-73
2021/03/19 06:34:55;;;;;;;37.97;17.67;;;-0.20;99.90;;;;;;4145987;28;20029;-73
2021/03/19 06:37:03;;;;;;;36.40;15.85;;;-0.10;99.90;;;;;;4145296;28;20030;-74
2021/03/19 06:39:20;;;;;;;37.10;16.45;;;0.00;99.90;;;;;;4146367;28;20042;-72
2021/03/19 06:41:26;;;;;;;36.55;16.27;;;0.00;99.90;;;;;;4145589;28;20049;-72
2021/03/19 06:43:29;;;;;;;39.55;17.45;;;0.10;99.90;;;;;;4146453;28;20113;-72
2021/03/19 06:45:30;;;;;;;37.13;18.17;;;0.20;99.90;;;;;;4144018;28;20038;-72
2021/03/19 06:47:55;;;;;;;34.40;16.35;;;0.20;99.90;;;;;;4138823;28;20390;-73
2021/03/19 06:49:56;;;;;;;35.25;17.10;;;0.20;99.90;;;;;;4140684;28;20066;-73
2021/03/19 06:52:29;;;;;;;48.25;19.38;;;0.30;99.90;;;;;;4145474;28;20030;-73
2021/03/19 06:54:53;;;;;;;43.78;16.27;;;0.40;99.90;;;;;;4108036;28;20037;-73
2021/03/19 06:57:14;;;;;;;39.75;17.25;;;0.40;99.90;;;;;;4139414;28;20034;-74
2021/03/19 06:59:27;;;;;;;37.17;16.77;;;0.50;99.90;;;;;;4146344;28;20034;-73
2021/03/19 07:01:35;;;;;;;36.10;16.77;;;0.50;99.90;;;;;;4145382;28;20362;-74
2021/03/19 07:03:51;;;;;;;41.83;17.02;;;0.60;99.90;;;;;;4140726;28;20030;-73
2021/03/19 07:06:19;;;;;;;30.65;14.60;;;0.60;99.90;;;;;;4124096;28;20039;-73
2021/03/19 07:08:32;;;;;;;41.45;16.10;;;0.70;99.90;;;;;;4136149;28;20172;-72
2021/03/19 07:10:53;;;;;;;38.58;19.70;;;0.70;99.90;;;;;;4129999;28;20038;-73
2021/03/19 07:13:12;;;;;;;31.58;15.50;;;0.80;99.90;;;;;;4113199;28;20094;-73
2021/03/19 07:15:24;;;;;;;34.22;16.92;;;0.80;99.90;;;;;;4144638;28;20418;-74
2021/03/19 07:17:44;;;;;;;34.53;15.52;;;0.90;99.90;;;;;;4142524;28;20034;-74
2021/03/19 07:20:16;;;;;;;39.50;16.33;;;1.00;99.90;;;;;;4143087;28;20116;-73
2021/03/19 07:22:35;;;;;;;33.17;15.50;;;1.00;99.90;;;;;;4143141;28;20057;-72
2021/03/19 07:25:01;;;;;;;30.70;15.18;;;1.10;99.90;;;;;;4144779;28;20525;-74
2021/03/19 07:27:29;;;;;;;28.25;14.68;;;1.20;99.90;;;;;;4137861;28;20132;-72
2021/03/19 07:29:53;;;;;;;31.17;16.20;;;1.30;99.90;;;;;;4135773;28;20065;-72
2021/03/19 07:31:55;;;;;;;;;;;1.30;99.90;;;;;;4138186;28;20481;-74
2021/03/19 07:34:32;;;;;;;30.20;13.65;;;1.30;99.90;;;;;;4143837;28;20000;-73
2021/03/19 07:36:58;;;;;;;30.75;13.50;;;1.40;99.90;;;;;;4151718;28;20168;-73
2021/03/19 07:39:02;;;;;;;37.45;14.20;;;1.50;99.90;;;;;;4159748;28;20112;-73
2021/03/19 07:41:03;;;;;;;27.55;13.73;;;1.50;99.90;;;;;;4141454;28;20378;-73
2021/03/19 07:43:24;;;;;;;29.42;14.05;;;1.60;99.90;;;;;;4144773;28;20037;-73
2021/03/19 07:45:25;;;;;;;25.90;14.20;;;1.70;99.90;;;;;;4142702;28;20125;-73
2021/03/19 07:47:44;;;;;;;33.20;14.82;;;1.70;99.90;;;;;;4138852;28;20464;-74
2021/03/19 07:49:50;;;;;;;26.02;12.93;;;1.80;99.90;;;;;;4152742;28;20030;-73
2021/03/19 07:52:00;;;;;;;30.95;13.65;;;1.90;99.90;;;;;;4141467;28;20436;-74
2021/03/19 07:54:24;;;;;;;25.80;12.50;;;1.90;99.90;;;;;;4143574;28;20041;-74
2021/03/19 07:56:40;;;;;;;;;;;2.00;99.90;;;;;;4140884;28;20076;-75
2021/03/19 07:58:47;;;;;;;22.73;11.18;;;2.10;99.90;;;;;;4134831;28;20051;-74
2021/03/19 08:01:09;;;;;;;23.77;12.98;;;2.20;99.90;;;;;;4152827;28;20057;-73
2021/03/19 08:03:14;;;;;;;27.52;11.52;;;2.20;99.90;;;;;;4137219;28;20094;-74
2021/03/19 08:05:23;;;;;;;33.67;12.65;;;2.30;99.90;;;;;;4142444;28;20072;-75
2021/03/19 08:07:52;;;;;;;26.65;10.52;;;2.40;99.90;;;;;;4158292;28;20041;-73
2021/03/19 08:10:25;;;;;;;21.17;9.98;;;2.50;99.90;;;;;;4143787;28;20071;-75
2021/03/19 08:12:43;;;;;;;17.20;10.18;;;2.50;99.90;;;;;;4132620;28;20030;-75
2021/03/19 08:15:15;;;;;;;34.30;11.52;;;2.60;99.90;;;;;;4145513;28;20042;-74
2021/03/19 08:17:25;;;;;;;28.88;10.95;;;2.80;99.90;;;;;;4158627;28;20026;-74
2021/03/19 08:19:35;;;;;;;14.35;9.05;;;2.80;99.90;;;;;;4140368;28;20045;-74
2021/03/19 08:21:42;;;;;;;31.60;10.32;;;3.00;99.90;;;;;;4144487;28;20481;-75
2021/03/19 08:24:22;;;;;;;18.17;9.75;;;3.10;99.90;;;;;;4139393;28;20053;-75
2021/03/19 08:27:12;;;;;;;12.60;7.63;;;3.20;99.90;;;;;;4138930;28;20029;-74
2021/03/19 08:29:49;;;;;;;16.67;8.07;;;3.40;99.90;;;;;;4138634;28;20030;-74
2021/03/19 08:32:13;;;;;;;17.23;8.02;;;3.50;99.90;;;;;;4123850;28;20370;-74
2021/03/19 08:34:33;;;;;;;13.70;7.90;;;3.60;99.90;;;;;;4144515;28;20037;-75
2021/03/19 08:36:54;;;;;;;15.85;8.43;;;3.70;99.90;;;;;;4138297;28;20140;-74
2021/03/19 08:39:12;;;;;;;13.48;7.65;;;3.80;99.90;;;;;;4138619;28;20108;-75
2021/03/19 08:41:25;;;;;;;9.18;6.30;;;3.90;99.90;;;;;;4140897;28;20072;-75
2021/03/19 08:43:31;;;;;;;11.32;5.88;;;3.90;99.90;;;;;;4143335;28;20034;-75
2021/03/19 08:45:32;;;;;;;15.93;7.38;;;4.00;99.90;;;;;;4141413;28;20034;-75
2021/03/19 08:47:48;;;;;;;21.48;7.32;;;4.10;99.90;;;;;;4142093;28;20034;-73
2021/03/19 08:49:55;;;;;;;22.70;7.22;;;4.20;99.90;;;;;;4140578;28;20459;-73
2021/03/19 08:51:57;;;;;;;12.65;6.78;;;4.30;99.90;;;;;;4150486;28;20037;-72
2021/03/19 08:54:16;;;;;;;12.32;6.15;;;4.40;99.90;;;;;;4144647;28;20034;-73
2021/03/19 08:56:20;;;;;;;18.55;6.22;;;4.60;99.90;;;;;;4144536;28;20054;-74
2021/03/19 08:58:30;;;;;;;18.27;7.35;;;4.60;99.90;;;;;;4137640;28;20045;-74
2021/03/19 09:00:32;;;;;;;16.52;7.88;;;4.70;99.90;;;;;;4141841;28;20117;-73
2021/03/19 09:02:33;;;;;;;31.13;8.60;;;4.80;99.90;;;;;;4155310;28;20034;-75
2021/03/19 09:04:52;;;;;;;26.98;9.23;;;4.90;99.90;;;;;;4142062;28;20316;-74
2021/03/19 09:07:20;;;;;;;15.23;6.50;;;5.00;99.90;;;;;;4135019;28;20505;-73
2021/03/19 09:09:39;;;;;;;15.43;6.78;;;5.10;99.90;;;;;;4142197;28;20121;-73
2021/03/19 09:11:40;;;;;;;10.77;5.88;;;5.20;99.90;;;;;;4139755;28;20550;-74
2021/03/19 09:14:03;;;;;;;19.08;7.18;;;5.30;99.90;;;;;;4140730;28;20165;-75
2021/03/19 09:16:45;;;;;;;11.85;5.72;;;5.30;99.90;;;;;;4143248;28;20041;-74
2021/03/19 09:18:48;;;;;;;9.52;5.78;;;5.40;99.90;;;;;;4092902;28;20098;-73
2021/03/19 09:21:09;;;;;;;7.03;5.35;;;5.60;99.90;;;;;;4107831;28;20068;-75
2021/03/19 09:23:10;;;;;;;7.15;5.13;;;5.70;99.90;;;;;;4097948;28;20047;-73
2021/03/19 09:25:14;;;;;;;7.45;4.70;;;5.70;99.90;;;;;;4142788;28;20050;-72
2021/03/19 09:27:37;;;;;;;10.82;5.18;;;5.80;99.90;;;;;;4143767;28;20034;-73
2021/03/19 09:29:40;;;;;;;7.68;4.47;;;5.80;99.90;;;;;;4141160;28;20042;-73
2021/03/19 09:31:44;;;;;;;6.20;4.57;;;5.90;99.90;;;;;;4142936;28;20040;-74
2021/03/19 09:33:45;;;;;;;10.60;5.93;;;6.10;99.90;;;;;;4143115;28;20042;-75
2021/03/19 09:35:48;;;;;;;10.40;5.22;;;6.30;99.90;;;;;;4144171;28;20072;-74
2021/03/19 09:37:49;;;;;;;;;;;6.50;99.90;;;;;;4141974;28;20448;-75
2021/03/19 09:40:04;;;;;;;14.15;4.68;;;6.70;99.90;;;;;;4157390;28;19921;-74
2021/03/19 09:42:35;;;;;;;10.65;4.78;;;6.70;99.90;;;;;;4141502;28;20037;-73
2021/03/19 09:44:36;;;;;;;12.60;5.50;;;6.80;99.90;;;;;;4131906;28;20773;-74
2021/03/19 09:46:36;;;;;;;9.20;5.28;;;7.00;99.90;;;;;;4141332;28;20184;-74
2021/03/19 09:48:37;;;;;;;9.52;4.78;;;7.10;99.90;;;;;;4142099;28;20061;-74
2021/03/19 09:50:53;;;;;;;11.85;4.78;;;7.30;99.90;;;;;;4143674;28;20389;-73
2021/03/19 09:53:11;;;;;;;11.82;5.55;;;7.50;99.90;;;;;;4137519;28;20042;-73
2021/03/19 09:55:18;;;;;;;15.45;4.75;;;7.60;99.90;;;;;;4142422;28;20026;-72
2021/03/19 09:57:27;;;;;;;10.85;4.82;;;7.90;99.90;;;;;;4137746;28;20050;-73
2021/03/19 09:59:34;;;;;;;44.60;8.45;;;7.90;99.90;;;;;;4143704;28;20452;-73
2021/03/19 10:01:44;;;;;;;11.65;5.00;;;8.00;99.90;;;;;;4138171;28;20030;-73
2021/03/19 10:03:49;;;;;;;26.20;7.20;;;8.00;99.90;;;;;;4127047;28;20104;-73
2021/03/19 10:05:50;;;;;;;37.78;8.05;;;7.70;99.90;;;;;;4140494;28;20038;-74
2021/03/19 10:08:00;;;;;;;9.52;5.55;;;7.40;99.90;;;;;;4141156;28;20040;-74
2021/03/19 10:10:01;;;;;;;10.10;4.40;;;7.70;99.90;;;;;;4146034;28;20033;-73
2021/03/19 10:12:16;;;;;;;11.00;4.90;;;8.10;99.90;;;;;;4143173;28;20045;-74
2021/03/19 10:14:39;;;;;;;7.07;4.90;;;8.30;99.90;;;;;;4141608;28;20128;-73
2021/03/19 10:16:40;;;;;;;7.03;4.95;;;8.30;99.90;;;;;;4140616;28;20026;-73
2021/03/19 10:18:45;;;;;;;26.77;7.55;;;8.10;99.90;;;;;;4145732;28;20041;-74
2021/03/19 10:20:53;;;;;;;26.02;7.88;;;8.00;99.90;;;;;;4144545;28;20530;-74
2021/03/19 10:23:08;;;;;;;34.70;8.27;;;8.20;99.90;;;;;;4138419;28;20096;-72
2021/03/19 10:25:31;;;;;;;6.97;4.80;;;8.50;99.90;;;;;;4141729;28;20045;-73
2021/03/19 10:27:32;;;;;;;6.00;4.72;;;9.40;99.90;;;;;;4146205;28;20049;-72
2021/03/19 10:29:38;;;;;;;6.20;5.03;;;9.60;99.90;;;;;;4140310;28;20520;-73
2021/03/19 10:32:02;;;;;;;22.52;6.05;;;9.60;99.90;;;;;;4139675;28;20058;-72
2021/03/19 10:34:05;;;;;;;;;;;9.10;99.90;;;;;;4142839;28;20034;-72
2021/03/19 10:36:12;;;;;;;9.55;4.28;;;9.20;99.90;;;;;;4140820;28;20432;-73
2021/03/19 10:38:26;;;;;;;33.55;7.80;;;9.80;99.90;;;;;;4143039;28;20124;-72
2021/03/19 10:40:38;;;;;;;8.27;4.05;;;10.30;99.90;;;;;;4140949;28;20026;-73
2021/03/19 10:43:10;;;;;;;14.48;5.75;;;10.70;99.90;;;;;;4143300;28;20144;-73
2021/03/19 10:45:33;;;;;;;18.45;5.07;;;11.40;99.90;;;;;;4136147;28;20072;-73
2021/03/19 10:47:45;;;;;;;13.82;4.53;;;12.00;99.90;;;;;;4134582;28;20112;-73
2021/03/19 10:49:56;;;;;;;6.70;4.10;;;12.10;99.90;;;;;;4140599;28;20034;-73
2021/03/19 10:52:03;;;;;;;6.80;3.72;;;12.20;99.90;;;;;;4145839;28;20100;-73
2021/03/19 10:54:26;;;;;;;13.70;5.30;;;11.90;99.90;;;;;;4142997;28;20058;-73
2021/03/19 10:56:27;;;;;;;11.80;4.82;;;11.70;99.90;;;;;;4137921;28;20027;-73
2021/03/19 10:58:46;;;;;;;10.73;4.10;;;11.80;99.90;;;;;;4143656;28;20494;-74
2021/03/19 11:00:54;;;;;;;7.60;4.47;;;12.40;99.90;;;;;;4141406;28;20030;-75
2021/03/19 11:03:01;;;;;;;6.22;4.15;;;12.40;99.90;;;;;;4146544;28;20107;-73
2021/03/19 11:05:07;;;;;;;6.95;3.38;;;12.30;99.90;;;;;;4141074;28;20108;-73